sensor_id;sensor_type;location;lat;lon;timestamp;temperature;humidity
22426;DHT22;11380;50.822;15.790;2023-06-26T00:03:08;14.90;1.00
22426;DHT22;11380;50.822;15.790;2023-06-26T00:08:19;14.80;1.00
22426;DHT22;11380;50.822;15.790;2023-06-26T00:13:27;14.70;1.00
22426;DHT22;11380;50.822;15.790;2023-06-26T00:18:34;14.80;1.00
22426;DHT22;11380;50.822;15.790;2023-06-26T00:23:42;14.80;1.00
22426;DHT22;11380;50.822;15.790;2023-06-26T00:28:49;14.60;1.00
22426;DHT22;11380;50.822;15.790;2023-06-26T00:33:58;14.40;1.00
22426;DHT22;11380;50.822;15.790;2023-06-26T00:39:04;14.60;1.00
22426;DHT22;11380;50.822;15.790;2023-06-26T00:44:12;14.80;1.00
22426;DHT22;11380;50.822;15.790;2023-06-26T00:49:19;14.60;1.00
22426;DHT22;11380;50.822;15.790;2023-06-26T00:54:26;14.50;1.00
22426;DHT22;11380;50.822;15.790;2023-06-26T00:59:33;14.40;1.00
22426;DHT22;11380;50.822;15.790;2023-06-26T01:04:40;14.30;1.00
22426;DHT22;11380;50.822;15.790;2023-06-26T01:09:49;14.40;1.00
22426;DHT22;11380;50.822;15.790;2023-06-26T01:14:57;14.40;1.00
22426;DHT22;11380;50.822;15.790;2023-06-26T01:20:06;14.30;1.00
22426;DHT22;11380;50.822;15.790;2023-06-26T01:30:32;14.40;1.00
22426;DHT22;11380;50.822;15.790;2023-06-26T01:35:40;14.30;1.00
22426;DHT22;11380;50.822;15.790;2023-06-26T01:40:47;14.50;1.00
22426;DHT22;11380;50.822;15.790;2023-06-26T01:45:59;14.40;1.00
22426;DHT22;11380;50.822;15.790;2023-06-26T01:51:13;14.40;1.00
22426;DHT22;11380;50.822;15.790;2023-06-26T01:56:21;14.70;1.00
22426;DHT22;11380;50.822;15.790;2023-06-26T02:01:30;14.70;1.00
22426;DHT22;11380;50.822;15.790;2023-06-26T02:06:38;14.30;1.00
22426;DHT22;11380;50.822;15.790;2023-06-26T02:11:45;14.40;1.00
22426;DHT22;11380;50.822;15.790;2023-06-26T02:16:52;14.50;1.00
22426;DHT22;11380;50.822;15.790;2023-06-26T02:22:09;14.50;1.00
22426;DHT22;11380;50.822;15.790;2023-06-26T02:27:17;14.30;15.60
22426;DHT22;11380;50.822;15.790;2023-06-26T02:32:24;14.50;1.00
22426;DHT22;11380;50.822;15.790;2023-06-26T02:37:31;14.50;1.00
22426;DHT22;11380;50.822;15.790;2023-06-26T02:42:38;14.30;1.00
22426;DHT22;11380;50.822;15.790;2023-06-26T02:47:45;14.40;1.00
22426;DHT22;11380;50.822;15.790;2023-06-26T02:52:53;14.40;55.30
22426;DHT22;11380;50.822;15.790;2023-06-26T02:57:59;14.30;90.20
22426;DHT22;11380;50.822;15.790;2023-06-26T03:03:07;14.20;42.90
22426;DHT22;11380;50.822;15.790;2023-06-26T03:08:14;14.30;86.30
22426;DHT22;11380;50.822;15.790;2023-06-26T03:13:21;14.40;83.30
22426;DHT22;11380;50.822;15.790;2023-06-26T03:18:28;14.60;42.90
22426;DHT22;11380;50.822;15.790;2023-06-26T03:23:35;14.60;37.30
22426;DHT22;11380;50.822;15.790;2023-06-26T03:28:42;14.60;43.60
22426;DHT22;11380;50.822;15.790;2023-06-26T03:33:49;14.60;99.90
22426;DHT22;11380;50.822;15.790;2023-06-26T03:38:56;14.70;99.90
22426;DHT22;11380;50.822;15.790;2023-06-26T03:44:04;14.90;99.90
22426;DHT22;11380;50.822;15.790;2023-06-26T03:49:11;15.60;92.40
22426;DHT22;11380;50.822;15.790;2023-06-26T03:54:18;15.90;21.00
22426;DHT22;11380;50.822;15.790;2023-06-26T03:59:25;15.70;75.80
22426;DHT22;11380;50.822;15.790;2023-06-26T04:04:32;16.00;1.00
22426;DHT22;11380;50.822;15.790;2023-06-26T04:09:38;16.10;1.00
22426;DHT22;11380;50.822;15.790;2023-06-26T04:14:45;16.30;1.00
22426;DHT22;11380;50.822;15.790;2023-06-26T04:19:52;16.60;1.00
22426;DHT22;11380;50.822;15.790;2023-06-26T04:25:02;16.80;1.00
22426;DHT22;11380;50.822;15.790;2023-06-26T04:30:11;17.10;1.00
22426;DHT22;11380;50.822;15.790;2023-06-26T04:35:19;17.50;1.00
22426;DHT22;11380;50.822;15.790;2023-06-26T04:40:26;17.90;1.00
22426;DHT22;11380;50.822;15.790;2023-06-26T04:45:32;18.30;1.00
22426;DHT22;11380;50.822;15.790;2023-06-26T04:50:41;18.60;1.00
22426;DHT22;11380;50.822;15.790;2023-06-26T04:55:50;18.90;1.00
22426;DHT22;11380;50.822;15.790;2023-06-26T05:00:59;19.30;1.00
22426;DHT22;11380;50.822;15.790;2023-06-26T05:06:07;19.40;1.00
22426;DHT22;11380;50.822;15.790;2023-06-26T05:11:14;19.60;1.00
22426;DHT22;11380;50.822;15.790;2023-06-26T05:16:21;19.70;1.00
22426;DHT22;11380;50.822;15.790;2023-06-26T05:21:29;19.60;1.00
22426;DHT22;11380;50.822;15.790;2023-06-26T05:26:37;19.40;1.00
22426;DHT22;11380;50.822;15.790;2023-06-26T05:31:45;19.60;1.00
22426;DHT22;11380;50.822;15.790;2023-06-26T05:36:56;19.60;1.00
22426;DHT22;11380;50.822;15.790;2023-06-26T05:42:05;19.80;1.00
22426;DHT22;11380;50.822;15.790;2023-06-26T05:47:12;19.90;1.00
22426;DHT22;11380;50.822;15.790;2023-06-26T05:52:20;20.20;1.00
22426;DHT22;11380;50.822;15.790;2023-06-26T05:57:28;20.20;1.00
22426;DHT22;11380;50.822;15.790;2023-06-26T06:02:37;20.70;1.00
22426;DHT22;11380;50.822;15.790;2023-06-26T06:07:44;21.00;1.00
22426;DHT22;11380;50.822;15.790;2023-06-26T06:12:51;21.10;1.00
22426;DHT22;11380;50.822;15.790;2023-06-26T06:18:00;21.50;1.00
22426;DHT22;11380;50.822;15.790;2023-06-26T06:23:07;22.00;1.00
22426;DHT22;11380;50.822;15.790;2023-06-26T06:28:15;21.80;1.00
22426;DHT22;11380;50.822;15.790;2023-06-26T06:33:22;22.40;1.00
22426;DHT22;11380;50.822;15.790;2023-06-26T06:38:30;22.20;1.00
22426;DHT22;11380;50.822;15.790;2023-06-26T06:43:37;22.70;1.00
22426;DHT22;11380;50.822;15.790;2023-06-26T06:48:45;23.00;1.00
22426;DHT22;11380;50.822;15.790;2023-06-26T06:53:52;22.90;1.00
22426;DHT22;11380;50.822;15.790;2023-06-26T06:58:59;22.70;1.00
22426;DHT22;11380;50.822;15.790;2023-06-26T07:04:08;23.10;1.00
22426;DHT22;11380;50.822;15.790;2023-06-26T07:09:18;23.30;1.00
22426;DHT22;11380;50.822;15.790;2023-06-26T07:14:25;23.50;1.00
22426;DHT22;11380;50.822;15.790;2023-06-26T07:19:32;23.70;1.00
22426;DHT22;11380;50.822;15.790;2023-06-26T07:24:40;23.60;1.00
22426;DHT22;11380;50.822;15.790;2023-06-26T07:29:46;24.00;1.00
22426;DHT22;11380;50.822;15.790;2023-06-26T07:34:53;24.50;1.00
22426;DHT22;11380;50.822;15.790;2023-06-26T07:40:00;24.70;99.90
22426;DHT22;11380;50.822;15.790;2023-06-26T07:45:09;24.10;1.00
22426;DHT22;11380;50.822;15.790;2023-06-26T07:50:17;25.10;1.00
22426;DHT22;11380;50.822;15.790;2023-06-26T07:55:27;25.30;1.00
22426;DHT22;11380;50.822;15.790;2023-06-26T08:00:34;24.70;1.00
22426;DHT22;11380;50.822;15.790;2023-06-26T08:05:41;24.90;1.00
22426;DHT22;11380;50.822;15.790;2023-06-26T08:10:49;25.10;99.90
22426;DHT22;11380;50.822;15.790;2023-06-26T08:15:57;25.70;99.90
22426;DHT22;11380;50.822;15.790;2023-06-26T08:21:03;26.00;99.90
22426;DHT22;11380;50.822;15.790;2023-06-26T08:26:12;26.10;99.90
22426;DHT22;11380;50.822;15.790;2023-06-26T08:31:22;26.30;99.90
22426;DHT22;11380;50.822;15.790;2023-06-26T08:36:31;26.70;99.90
22426;DHT22;11380;50.822;15.790;2023-06-26T08:41:39;26.80;99.90
22426;DHT22;11380;50.822;15.790;2023-06-26T08:46:47;27.00;1.00
22426;DHT22;11380;50.822;15.790;2023-06-26T08:52:02;27.40;99.90
22426;DHT22;11380;50.822;15.790;2023-06-26T08:57:10;27.70;1.00
22426;DHT22;11380;50.822;15.790;2023-06-26T09:02:24;27.80;99.90
22426;DHT22;11380;50.822;15.790;2023-06-26T09:07:30;27.30;99.90
22426;DHT22;11380;50.822;15.790;2023-06-26T09:12:37;27.20;1.00
22426;DHT22;11380;50.822;15.790;2023-06-26T09:17:45;27.70;99.90
22426;DHT22;11380;50.822;15.790;2023-06-26T09:22:54;27.60;99.90
22426;DHT22;11380;50.822;15.790;2023-06-26T09:28:02;27.50;99.90
22426;DHT22;11380;50.822;15.790;2023-06-26T09:33:17;27.20;99.90
22426;DHT22;11380;50.822;15.790;2023-06-26T09:38:25;28.30;99.90
22426;DHT22;11380;50.822;15.790;2023-06-26T09:43:32;28.20;1.00
22426;DHT22;11380;50.822;15.790;2023-06-26T09:48:43;28.00;1.00
22426;DHT22;11380;50.822;15.790;2023-06-26T09:53:51;28.10;1.00
22426;DHT22;11380;50.822;15.790;2023-06-26T09:59:03;28.60;1.00
22426;DHT22;11380;50.822;15.790;2023-06-26T10:04:11;28.80;1.00
22426;DHT22;11380;50.822;15.790;2023-06-26T10:09:19;29.00;1.00
22426;DHT22;11380;50.822;15.790;2023-06-26T10:14:34;28.50;1.00
22426;DHT22;11380;50.822;15.790;2023-06-26T10:19:44;29.30;1.00
22426;DHT22;11380;50.822;15.790;2023-06-26T10:24:53;29.00;1.00
22426;DHT22;11380;50.822;15.790;2023-06-26T10:30:04;28.70;1.00
22426;DHT22;11380;50.822;15.790;2023-06-26T10:35:13;27.90;1.00
22426;DHT22;11380;50.822;15.790;2023-06-26T10:40:27;28.20;1.00
22426;DHT22;11380;50.822;15.790;2023-06-26T10:45:35;27.80;1.00
22426;DHT22;11380;50.822;15.790;2023-06-26T10:50:43;27.50;1.00
22426;DHT22;11380;50.822;15.790;2023-06-26T10:56:02;28.30;1.00
22426;DHT22;11380;50.822;15.790;2023-06-26T11:01:14;28.20;1.00
22426;DHT22;11380;50.822;15.790;2023-06-26T11:06:25;28.00;1.00
22426;DHT22;11380;50.822;15.790;2023-06-26T11:17:08;28.00;1.00
22426;DHT22;11380;50.822;15.790;2023-06-26T11:22:16;28.30;1.00
22426;DHT22;11380;50.822;15.790;2023-06-26T11:27:23;28.40;1.00
22426;DHT22;11380;50.822;15.790;2023-06-26T11:32:31;28.60;1.00
22426;DHT22;11380;50.822;15.790;2023-06-26T11:37:39;28.90;1.00
22426;DHT22;11380;50.822;15.790;2023-06-26T11:42:46;28.20;1.00
22426;DHT22;11380;50.822;15.790;2023-06-26T11:47:55;29.50;1.00
22426;DHT22;11380;50.822;15.790;2023-06-26T11:53:04;29.30;1.00
22426;DHT22;11380;50.822;15.790;2023-06-26T11:58:12;29.70;1.00
22426;DHT22;11380;50.822;15.790;2023-06-26T12:03:20;28.90;1.00
22426;DHT22;11380;50.822;15.790;2023-06-26T12:08:29;29.30;1.00
22426;DHT22;11380;50.822;15.790;2023-06-26T12:13:37;29.80;1.00
22426;DHT22;11380;50.822;15.790;2023-06-26T12:18:44;29.30;1.00
22426;DHT22;11380;50.822;15.790;2023-06-26T12:23:58;28.70;1.00
22426;DHT22;11380;50.822;15.790;2023-06-26T12:29:16;28.40;1.00
22426;DHT22;11380;50.822;15.790;2023-06-26T12:34:29;29.10;1.00
22426;DHT22;11380;50.822;15.790;2023-06-26T12:39:53;29.70;1.00
22426;DHT22;11380;50.822;15.790;2023-06-26T12:45:11;29.70;1.00
22426;DHT22;11380;50.822;15.790;2023-06-26T12:50:20;29.50;1.00
22426;DHT22;11380;50.822;15.790;2023-06-26T12:55:27;29.40;1.00
22426;DHT22;11380;50.822;15.790;2023-06-26T13:00:34;29.20;1.00
22426;DHT22;11380;50.822;15.790;2023-06-26T13:05:42;29.30;1.00
22426;DHT22;11380;50.822;15.790;2023-06-26T13:10:50;30.20;1.00
22426;DHT22;11380;50.822;15.790;2023-06-26T13:15:57;30.30;1.00
22426;DHT22;11380;50.822;15.790;2023-06-26T13:21:05;30.30;1.00
22426;DHT22;11380;50.822;15.790;2023-06-26T13:26:12;29.90;1.00
22426;DHT22;11380;50.822;15.790;2023-06-26T13:31:21;30.00;1.00
22426;DHT22;11380;50.822;15.790;2023-06-26T13:36:30;30.30;1.00
22426;DHT22;11380;50.822;15.790;2023-06-26T13:41:39;30.60;1.00
22426;DHT22;11380;50.822;15.790;2023-06-26T13:46:46;30.40;1.00
22426;DHT22;11380;50.822;15.790;2023-06-26T13:51:53;29.90;1.00
22426;DHT22;11380;50.822;15.790;2023-06-26T13:57:00;29.50;1.00
22426;DHT22;11380;50.822;15.790;2023-06-26T14:02:10;30.20;1.00
22426;DHT22;11380;50.822;15.790;2023-06-26T14:07:17;29.70;1.00
22426;DHT22;11380;50.822;15.790;2023-06-26T14:12:24;29.80;1.00
22426;DHT22;11380;50.822;15.790;2023-06-26T14:17:32;30.00;1.00
22426;DHT22;11380;50.822;15.790;2023-06-26T14:22:40;29.40;1.00
22426;DHT22;11380;50.822;15.790;2023-06-26T14:27:47;28.60;1.00
22426;DHT22;11380;50.822;15.790;2023-06-26T14:32:55;28.40;1.00
22426;DHT22;11380;50.822;15.790;2023-06-26T14:38:03;28.50;1.00
22426;DHT22;11380;50.822;15.790;2023-06-26T14:43:10;28.80;1.00
22426;DHT22;11380;50.822;15.790;2023-06-26T14:48:17;28.70;1.00
22426;DHT22;11380;50.822;15.790;2023-06-26T14:53:24;29.30;1.00
22426;DHT22;11380;50.822;15.790;2023-06-26T14:58:32;29.40;1.00
22426;DHT22;11380;50.822;15.790;2023-06-26T15:03:39;29.20;1.00
22426;DHT22;11380;50.822;15.790;2023-06-26T15:08:48;28.50;1.00
22426;DHT22;11380;50.822;15.790;2023-06-26T15:13:55;29.00;1.00
22426;DHT22;11380;50.822;15.790;2023-06-26T15:19:04;28.40;1.00
22426;DHT22;11380;50.822;15.790;2023-06-26T15:24:11;27.90;1.00
22426;DHT22;11380;50.822;15.790;2023-06-26T15:29:18;27.70;1.00
22426;DHT22;11380;50.822;15.790;2023-06-26T15:34:25;27.80;1.00
22426;DHT22;11380;50.822;15.790;2023-06-26T15:39:33;28.40;1.00
22426;DHT22;11380;50.822;15.790;2023-06-26T15:44:41;28.10;1.00
22426;DHT22;11380;50.822;15.790;2023-06-26T15:49:48;27.80;1.00
22426;DHT22;11380;50.822;15.790;2023-06-26T15:54:55;27.60;1.00
22426;DHT22;11380;50.822;15.790;2023-06-26T16:00:03;27.90;1.00
22426;DHT22;11380;50.822;15.790;2023-06-26T16:05:12;28.60;99.90
22426;DHT22;11380;50.822;15.790;2023-06-26T16:10:20;28.40;99.90
22426;DHT22;11380;50.822;15.790;2023-06-26T16:15:26;28.20;99.90
22426;DHT22;11380;50.822;15.790;2023-06-26T16:20:33;28.30;99.90
22426;DHT22;11380;50.822;15.790;2023-06-26T16:25:40;28.10;99.90
22426;DHT22;11380;50.822;15.790;2023-06-26T16:30:47;28.40;99.90
22426;DHT22;11380;50.822;15.790;2023-06-26T16:35:55;28.40;1.00
22426;DHT22;11380;50.822;15.790;2023-06-26T16:41:02;28.50;1.00
22426;DHT22;11380;50.822;15.790;2023-06-26T16:46:10;28.40;1.00
22426;DHT22;11380;50.822;15.790;2023-06-26T16:51:17;28.30;1.00
22426;DHT22;11380;50.822;15.790;2023-06-26T16:56:24;28.20;1.00
22426;DHT22;11380;50.822;15.790;2023-06-26T17:01:31;28.30;1.00
22426;DHT22;11380;50.822;15.790;2023-06-26T17:06:38;27.80;1.00
22426;DHT22;11380;50.822;15.790;2023-06-26T17:11:44;27.70;1.00
22426;DHT22;11380;50.822;15.790;2023-06-26T17:16:51;27.30;1.00
22426;DHT22;11380;50.822;15.790;2023-06-26T17:22:07;27.00;99.90
22426;DHT22;11380;50.822;15.790;2023-06-26T17:27:14;27.00;99.90
22426;DHT22;11380;50.822;15.790;2023-06-26T17:32:23;27.00;99.90
22426;DHT22;11380;50.822;15.790;2023-06-26T17:37:30;26.80;99.90
22426;DHT22;11380;50.822;15.790;2023-06-26T17:42:37;26.80;1.00
22426;DHT22;11380;50.822;15.790;2023-06-26T17:47:45;26.40;1.00
22426;DHT22;11380;50.822;15.790;2023-06-26T17:52:53;26.20;1.00
22426;DHT22;11380;50.822;15.790;2023-06-26T17:57:59;26.00;1.00
22426;DHT22;11380;50.822;15.790;2023-06-26T18:03:07;25.50;1.00
22426;DHT22;11380;50.822;15.790;2023-06-26T18:08:14;25.50;99.90
22426;DHT22;11380;50.822;15.790;2023-06-26T18:13:21;25.30;1.00
22426;DHT22;11380;50.822;15.790;2023-06-26T18:18:31;24.90;1.00
22426;DHT22;11380;50.822;15.790;2023-06-26T18:23:39;24.80;17.40
22426;DHT22;11380;50.822;15.790;2023-06-26T18:28:46;24.60;59.60
22426;DHT22;11380;50.822;15.790;2023-06-26T18:33:55;24.40;12.20
22426;DHT22;11380;50.822;15.790;2023-06-26T18:39:03;24.20;1.00
22426;DHT22;11380;50.822;15.790;2023-06-26T18:44:13;24.30;6.30
22426;DHT22;11380;50.822;15.790;2023-06-26T18:49:20;23.00;1.00
22426;DHT22;11380;50.822;15.790;2023-06-26T18:54:27;21.20;1.00
22426;DHT22;11380;50.822;15.790;2023-06-26T18:59:35;20.40;1.00
22426;DHT22;11380;50.822;15.790;2023-06-26T19:04:44;20.40;1.00
22426;DHT22;11380;50.822;15.790;2023-06-26T19:09:51;20.30;1.00
22426;DHT22;11380;50.822;15.790;2023-06-26T19:15:01;20.10;1.00
22426;DHT22;11380;50.822;15.790;2023-06-26T19:20:09;20.30;1.00
22426;DHT22;11380;50.822;15.790;2023-06-26T19:25:17;20.00;1.00
22426;DHT22;11380;50.822;15.790;2023-06-26T19:30:25;19.60;25.30
22426;DHT22;11380;50.822;15.790;2023-06-26T19:35:32;20.00;1.00
22426;DHT22;11380;50.822;15.790;2023-06-26T19:40:39;20.20;1.00
22426;DHT22;11380;50.822;15.790;2023-06-26T19:45:50;20.20;1.00
22426;DHT22;11380;50.822;15.790;2023-06-26T19:50:59;20.20;1.00
22426;DHT22;11380;50.822;15.790;2023-06-26T19:56:08;20.10;1.00
22426;DHT22;11380;50.822;15.790;2023-06-26T20:01:15;19.70;1.00
22426;DHT22;11380;50.822;15.790;2023-06-26T20:06:24;20.30;1.00
22426;DHT22;11380;50.822;15.790;2023-06-26T20:11:33;19.90;1.00
22426;DHT22;11380;50.822;15.790;2023-06-26T20:16:40;19.90;1.00
22426;DHT22;11380;50.822;15.790;2023-06-26T20:21:48;19.70;99.90
22426;DHT22;11380;50.822;15.790;2023-06-26T20:26:56;19.60;1.00
22426;DHT22;11380;50.822;15.790;2023-06-26T20:32:03;19.70;1.00
22426;DHT22;11380;50.822;15.790;2023-06-26T20:37:11;19.70;1.00
22426;DHT22;11380;50.822;15.790;2023-06-26T20:42:18;19.60;1.00
22426;DHT22;11380;50.822;15.790;2023-06-26T20:47:26;19.40;28.30
22426;DHT22;11380;50.822;15.790;2023-06-26T20:52:38;19.30;87.90
22426;DHT22;11380;50.822;15.790;2023-06-26T20:57:47;19.30;99.90
22426;DHT22;11380;50.822;15.790;2023-06-26T21:02:54;19.00;99.90
22426;DHT22;11380;50.822;15.790;2023-06-26T21:08:01;19.00;99.90
22426;DHT22;11380;50.822;15.790;2023-06-26T21:13:10;18.80;99.90
22426;DHT22;11380;50.822;15.790;2023-06-26T21:18:17;18.60;99.90
22426;DHT22;11380;50.822;15.790;2023-06-26T21:23:25;18.50;99.90
22426;DHT22;11380;50.822;15.790;2023-06-26T21:28:32;18.50;99.90
22426;DHT22;11380;50.822;15.790;2023-06-26T21:33:39;18.50;99.90
22426;DHT22;11380;50.822;15.790;2023-06-26T21:38:46;18.20;99.90
22426;DHT22;11380;50.822;15.790;2023-06-26T21:43:53;18.20;99.90
22426;DHT22;11380;50.822;15.790;2023-06-26T21:49:01;18.10;99.90
22426;DHT22;11380;50.822;15.790;2023-06-26T21:54:10;18.10;99.90
22426;DHT22;11380;50.822;15.790;2023-06-26T21:59:19;18.00;99.90
22426;DHT22;11380;50.822;15.790;2023-06-26T22:04:26;18.00;99.90
22426;DHT22;11380;50.822;15.790;2023-06-26T22:09:33;18.20;99.90
22426;DHT22;11380;50.822;15.790;2023-06-26T22:14:40;18.20;55.00
22426;DHT22;11380;50.822;15.790;2023-06-26T22:19:48;18.40;21.90
22426;DHT22;11380;50.822;15.790;2023-06-26T22:24:55;18.50;27.60
22426;DHT22;11380;50.822;15.790;2023-06-26T22:30:04;18.60;5.10
22426;DHT22;11380;50.822;15.790;2023-06-26T22:35:12;18.60;1.00
22426;DHT22;11380;50.822;15.790;2023-06-26T22:40:19;18.40;24.60
22426;DHT22;11380;50.822;15.790;2023-06-26T22:45:26;18.00;66.60
22426;DHT22;11380;50.822;15.790;2023-06-26T22:50:36;18.10;46.80
22426;DHT22;11380;50.822;15.790;2023-06-26T22:55:45;18.00;1.00
22426;DHT22;11380;50.822;15.790;2023-06-26T23:00:53;18.10;1.00
22426;DHT22;11380;50.822;15.790;2023-06-26T23:06:02;18.20;1.00
22426;DHT22;11380;50.822;15.790;2023-06-26T23:11:11;18.20;1.00
22426;DHT22;11380;50.822;15.790;2023-06-26T23:16:17;17.60;29.50
22426;DHT22;11380;50.822;15.790;2023-06-26T23:21:25;18.00;1.00
22426;DHT22;11380;50.822;15.790;2023-06-26T23:26:32;18.10;1.00
22426;DHT22;11380;50.822;15.790;2023-06-26T23:31:40;18.00;1.00
22426;DHT22;11380;50.822;15.790;2023-06-26T23:36:48;18.00;1.00
22426;DHT22;11380;50.822;15.790;2023-06-26T23:41:56;17.90;1.00
22426;DHT22;11380;50.822;15.790;2023-06-26T23:47:05;17.90;1.00
22426;DHT22;11380;50.822;15.790;2023-06-26T23:52:12;17.50;1.00
22426;DHT22;11380;50.822;15.790;2023-06-26T23:57:19;17.40;50.90
